createdAt,value
2022-11-05T00:01:29.562Z,27.27
2022-11-05T00:04:51.633Z,25.10
2022-11-05T00:08:13.903Z,24.77
2022-11-05T00:11:18.406Z,27.65
2022-11-05T00:14:40.564Z,22.38
2022-11-05T00:17:44.000Z,23.97
2022-11-05T00:20:47.418Z,22.23
2022-11-05T00:24:09.420Z,22.33
2022-11-05T00:27:13.041Z,24.40
2022-11-05T00:30:22.376Z,24.25
2022-11-05T00:33:25.652Z,24.57
2022-11-05T00:36:28.945Z,23.60
2022-11-05T00:39:32.227Z,23.98
2022-11-05T00:42:53.976Z,21.38
2022-11-05T00:45:57.236Z,22.00
2022-11-05T00:49:19.085Z,21.90
2022-11-05T00:52:40.735Z,21.93
2022-11-05T00:55:46.049Z,22.98
2022-11-05T00:58:49.430Z,24.92
2022-11-05T01:01:52.861Z,24.13
2022-11-05T01:04:56.302Z,23.27
2022-11-05T01:08:00.000Z,23.03
2022-11-05T01:11:12.772Z,23.50
2022-11-05T01:14:16.509Z,23.05
2022-11-05T01:17:19.789Z,21.98
2022-11-05T01:20:23.285Z,20.40
2022-11-05T01:23:26.592Z,21.93
2022-11-05T01:26:30.044Z,22.38
2022-11-05T01:29:33.398Z,24.23
2022-11-05T01:32:37.732Z,21.17
2022-11-05T01:35:41.080Z,21.97
2022-11-05T01:38:44.425Z,23.53
2022-11-05T01:41:47.833Z,21.92
2022-11-05T01:45:02.429Z,27.83
2022-11-05T01:48:31.568Z,25.17
2022-11-05T01:51:34.990Z,25.07
2022-11-05T01:54:38.274Z,22.63
2022-11-05T01:57:41.714Z,24.10
2022-11-05T02:00:45.495Z,22.35
2022-11-05T02:03:52.075Z,25.08
2022-11-05T02:06:55.785Z,21.87
2022-11-05T02:10:13.768Z,23.07
2022-11-05T02:13:17.190Z,25.25
2022-11-05T02:16:37.837Z,22.30
2022-11-05T02:19:47.424Z,24.17
2022-11-05T02:23:09.620Z,23.87
2022-11-05T02:26:30.884Z,21.67
2022-11-05T02:29:34.169Z,20.77
2022-11-05T02:32:56.465Z,23.70
2022-11-05T02:36:16.172Z,20.10
2022-11-05T02:39:34.180Z,23.37
2022-11-05T02:42:53.653Z,25.43
2022-11-05T02:46:33.991Z,22.65
2022-11-05T02:49:42.903Z,25.65
2022-11-05T02:53:16.348Z,21.80
2022-11-05T02:56:26.425Z,23.57
2022-11-05T02:59:29.983Z,21.47
2022-11-05T03:02:33.858Z,20.95
2022-11-05T03:06:06.467Z,22.52
2022-11-05T03:09:45.923Z,23.83
2022-11-05T03:12:58.592Z,24.43
2022-11-05T03:16:12.400Z,22.50
2022-11-05T03:19:24.981Z,24.15
2022-11-05T03:22:37.351Z,21.17
2022-11-05T03:25:47.415Z,20.77
2022-11-05T03:29:02.614Z,22.87
2022-11-05T03:32:06.855Z,22.43
2022-11-05T03:35:15.446Z,24.65
2022-11-05T03:38:34.209Z,22.60
2022-11-05T03:41:43.334Z,22.60
2022-11-05T03:44:50.818Z,20.47
2022-11-05T03:47:58.296Z,21.50
2022-11-05T03:51:10.774Z,20.60
2022-11-05T03:54:14.639Z,20.38
2022-11-05T03:57:40.180Z,21.50
2022-11-05T04:00:43.657Z,22.97
2022-11-05T04:03:47.464Z,23.30
2022-11-05T04:07:09.256Z,24.92
2022-11-05T04:10:31.553Z,22.17
2022-11-05T04:13:35.003Z,25.08
2022-11-05T04:16:57.006Z,22.10
2022-11-05T04:20:19.111Z,22.43
2022-11-05T04:23:41.144Z,21.60
2022-11-05T04:26:45.425Z,24.95
2022-11-05T04:30:07.680Z,21.90
2022-11-05T04:33:15.829Z,20.73
2022-11-05T04:36:19.738Z,22.43
2022-11-05T04:39:23.025Z,20.88
2022-11-05T04:42:26.320Z,22.65
2022-11-05T04:45:34.309Z,24.15
2022-11-05T04:48:38.325Z,22.23
2022-11-05T04:51:41.629Z,19.73
2022-11-05T04:54:44.878Z,26.83
2022-11-05T04:57:49.797Z,25.92
2022-11-05T05:00:53.126Z,24.35
2022-11-05T05:03:56.453Z,22.90
2022-11-05T05:06:59.876Z,20.80
2022-11-05T05:10:06.080Z,24.88
2022-11-05T05:13:12.085Z,25.40
2022-11-05T05:16:24.769Z,26.33
2022-11-05T05:19:28.409Z,27.10
2022-11-05T05:22:31.724Z,21.37
2022-11-05T05:25:35.061Z,24.23
2022-11-05T05:28:38.492Z,22.10
2022-11-05T05:31:42.042Z,21.90
2022-11-05T05:34:45.308Z,21.00
2022-11-05T05:37:48.632Z,23.93
2022-11-05T05:40:52.161Z,23.35
2022-11-05T05:43:55.412Z,19.45
2022-11-05T05:46:58.793Z,22.50
2022-11-05T05:50:02.221Z,19.83
2022-11-05T05:53:05.570Z,22.07
2022-11-05T05:56:08.874Z,22.08
2022-11-05T05:59:12.826Z,18.38
2022-11-05T06:02:16.358Z,33.58
2022-11-05T06:05:19.736Z,22.40
2022-11-05T06:08:22.997Z,23.00
2022-11-05T06:11:26.461Z,20.08
2022-11-05T06:14:29.788Z,20.42
2022-11-05T06:17:34.280Z,20.92
2022-11-05T06:20:37.648Z,20.07
2022-11-05T06:23:43.477Z,23.40
2022-11-05T06:26:46.873Z,21.23
2022-11-05T06:29:50.203Z,18.67
2022-11-05T06:32:53.683Z,22.17
2022-11-05T06:36:00.388Z,20.53
2022-11-05T06:39:03.785Z,23.00
2022-11-05T06:42:22.339Z,22.92
2022-11-05T06:45:25.693Z,25.17
2022-11-05T06:48:29.580Z,23.52
2022-11-05T06:51:33.029Z,21.07
2022-11-05T06:54:36.312Z,23.17
2022-11-05T06:57:39.644Z,24.10
2022-11-05T07:00:43.064Z,26.50
2022-11-05T07:03:49.034Z,29.58
2022-11-05T07:06:52.359Z,26.60
2022-11-05T07:09:55.718Z,44.40
2022-11-05T07:13:02.391Z,33.60
2022-11-05T07:16:08.879Z,31.38
2022-11-05T07:19:12.318Z,33.25
2022-11-05T07:22:15.928Z,29.23
2022-11-05T07:25:19.241Z,28.00
2022-11-05T07:28:22.536Z,23.73
2022-11-05T07:31:25.779Z,23.45
2022-11-05T07:34:29.338Z,23.33
2022-11-05T07:37:32.659Z,25.47
2022-11-05T07:40:36.013Z,27.80
2022-11-05T07:43:39.369Z,26.15
2022-11-05T07:46:42.847Z,25.58
2022-11-05T07:49:46.100Z,34.05
2022-11-05T07:52:49.555Z,40.70
2022-11-05T07:55:52.807Z,39.00
2022-11-05T07:58:56.073Z,31.92
2022-11-05T08:01:59.556Z,32.25
2022-11-05T08:05:03.092Z,28.75
2022-11-05T08:08:07.848Z,32.53
2022-11-05T08:11:12.803Z,29.67
2022-11-05T08:14:16.075Z,31.05
2022-11-05T08:17:19.410Z,31.55
2022-11-05T08:20:22.746Z,31.92
2022-11-05T08:23:27.019Z,41.70
2022-11-05T08:26:30.275Z,33.03
2022-11-05T08:29:33.551Z,32.33
2022-11-05T08:32:36.801Z,35.13
2022-11-05T08:35:40.338Z,35.70
2022-11-05T08:38:44.024Z,31.70
2022-11-05T08:41:47.374Z,33.90
2022-11-05T08:44:50.595Z,29.77
2022-11-05T08:48:04.485Z,30.88
2022-11-05T08:51:08.013Z,32.92
2022-11-05T08:54:11.917Z,37.53
2022-11-05T08:57:15.197Z,36.60
2022-11-05T09:00:18.725Z,33.40
2022-11-05T09:03:22.104Z,29.38
2022-11-05T09:06:25.462Z,27.75
2022-11-05T09:09:29.178Z,30.53
2022-11-05T09:12:32.578Z,26.90
2022-11-05T09:15:35.934Z,27.95
2022-11-05T09:18:39.868Z,27.63
2022-11-05T09:21:44.641Z,23.08
2022-11-05T09:24:47.981Z,26.77
2022-11-05T09:27:51.332Z,29.40
2022-11-05T09:30:55.095Z,25.50
2022-11-05T09:33:58.488Z,24.90
2022-11-05T09:37:01.931Z,22.33
2022-11-05T09:40:05.971Z,25.57
2022-11-05T09:43:17.070Z,23.47
2022-11-05T09:46:24.617Z,26.65
2022-11-05T09:49:41.409Z,26.48
2022-11-05T09:52:44.970Z,25.58
2022-11-05T09:55:57.237Z,23.40
2022-11-05T09:59:27.659Z,24.33
2022-11-05T10:02:35.776Z,21.00
2022-11-05T10:05:40.753Z,22.20
2022-11-05T10:08:47.365Z,20.52
2022-11-05T10:11:56.627Z,21.03
2022-11-05T10:15:43.002Z,19.27
2022-11-05T10:18:53.701Z,21.40
2022-11-05T10:22:16.472Z,23.15
2022-11-05T10:25:22.149Z,24.15
2022-11-05T10:28:29.304Z,18.77
2022-11-05T10:31:37.210Z,22.60
2022-11-05T10:34:41.598Z,23.63
2022-11-05T10:37:46.824Z,17.42
2022-11-05T10:41:03.628Z,21.38
2022-11-05T10:44:34.713Z,19.57
2022-11-05T10:47:56.032Z,19.77
2022-11-05T10:51:00.948Z,20.50
2022-11-05T10:54:21.923Z,19.13
2022-11-05T10:57:31.095Z,19.13
2022-11-05T11:00:34.641Z,23.17
2022-11-05T11:03:49.181Z,19.43
2022-11-05T11:06:55.089Z,20.38
2022-11-05T11:09:59.125Z,22.23
2022-11-05T11:13:03.339Z,23.27
2022-11-05T11:16:20.297Z,26.53
2022-11-05T11:19:31.341Z,21.60
2022-11-05T11:22:34.702Z,22.73
2022-11-05T11:26:03.676Z,25.23
2022-11-05T11:29:16.306Z,19.08
2022-11-05T11:32:21.888Z,23.13
2022-11-05T11:35:26.212Z,23.17
2022-11-05T11:38:33.135Z,24.08
2022-11-05T11:41:44.059Z,22.23
2022-11-05T11:44:49.074Z,22.83
2022-11-05T11:47:52.761Z,22.30
2022-11-05T11:50:57.501Z,22.17
2022-11-05T11:54:02.524Z,23.63
2022-11-05T11:57:21.036Z,23.48
2022-11-05T12:00:26.965Z,22.67
2022-11-05T12:03:51.017Z,23.50
2022-11-05T12:07:40.612Z,22.10
2022-11-05T12:11:30.214Z,22.33
2022-11-05T12:15:00.814Z,23.95
2022-11-05T12:18:26.214Z,24.13
2022-11-05T12:21:57.401Z,23.70
2022-11-05T12:25:15.710Z,23.87
2022-11-05T12:28:31.159Z,28.25
2022-11-05T12:31:53.659Z,29.33
2022-11-05T12:35:18.895Z,32.08
2022-11-05T12:38:41.077Z,24.53
2022-11-05T12:41:58.493Z,23.53
2022-11-05T12:45:23.494Z,23.23
2022-11-05T12:48:52.759Z,26.92
2022-11-05T12:52:28.199Z,33.53
2022-11-05T12:55:51.665Z,32.07
2022-11-05T12:59:14.590Z,26.83
2022-11-05T13:02:22.535Z,28.73
2022-11-05T13:06:01.479Z,27.13
2022-11-05T13:09:33.629Z,24.80
2022-11-05T13:12:41.887Z,25.20
2022-11-05T13:15:56.015Z,25.13
2022-11-05T13:19:09.358Z,27.33
2022-11-05T13:22:54.184Z,33.30
2022-11-05T13:26:19.529Z,56.78
2022-11-05T13:29:41.396Z,57.93
2022-11-05T13:33:04.292Z,39.20
2022-11-05T13:36:49.110Z,45.00
2022-11-05T13:39:54.205Z,36.72
2022-11-05T13:43:00.693Z,30.02
2022-11-05T13:46:42.211Z,28.77
2022-11-05T13:49:54.318Z,31.73
2022-11-05T13:53:26.262Z,35.75
2022-11-05T13:56:55.192Z,38.45
2022-11-05T14:00:23.738Z,33.65
2022-11-05T14:03:27.688Z,31.63
2022-11-05T14:06:35.502Z,36.60
2022-11-05T14:09:40.393Z,38.83
2022-11-05T14:12:49.445Z,44.42
2022-11-05T14:16:02.629Z,37.35
2022-11-05T14:19:28.073Z,34.00
2022-11-05T14:22:34.096Z,35.33
2022-11-05T14:25:37.452Z,31.02
2022-11-05T14:28:47.822Z,29.23
2022-11-05T14:32:12.582Z,29.05
2022-11-05T14:35:16.925Z,41.30
2022-11-05T14:38:26.854Z,30.07
2022-11-05T14:41:30.334Z,32.83
2022-11-05T14:44:35.877Z,30.35
2022-11-05T14:47:43.047Z,34.92
2022-11-05T14:50:47.221Z,48.03
2022-11-05T14:53:51.075Z,57.80
2022-11-05T14:56:59.964Z,61.75
2022-11-05T15:00:04.520Z,56.63
2022-11-05T15:03:32.951Z,54.78
2022-11-05T15:06:37.261Z,59.53
2022-11-05T15:09:55.180Z,45.27
2022-11-05T15:13:06.134Z,60.83
2022-11-05T15:16:10.906Z,54.20
2022-11-05T15:19:31.578Z,52.15
2022-11-05T15:22:48.627Z,52.77
2022-11-05T15:26:13.129Z,45.67
2022-11-05T15:29:24.422Z,46.22
2022-11-05T15:32:28.241Z,46.03
2022-11-05T15:35:37.858Z,50.53
2022-11-05T15:38:52.112Z,54.87
2022-11-05T15:42:13.937Z,53.63
2022-11-05T15:45:21.366Z,62.40
2022-11-05T15:48:24.745Z,62.50
2022-11-05T15:51:29.455Z,60.25
2022-11-05T15:54:33.164Z,68.60
2022-11-05T15:57:40.311Z,55.20
2022-11-05T16:00:49.151Z,46.28
2022-11-05T16:03:55.207Z,48.78
2022-11-05T16:07:01.610Z,46.58
2022-11-05T16:10:10.056Z,42.13
2022-11-05T16:13:35.384Z,47.37
2022-11-05T16:16:38.911Z,38.88
2022-11-05T16:19:43.340Z,38.92
2022-11-05T16:22:53.985Z,37.72
2022-11-05T16:25:57.848Z,39.90
2022-11-05T16:29:09.552Z,42.17
2022-11-05T16:32:26.853Z,48.60
2022-11-05T16:35:33.860Z,48.63
2022-11-05T16:38:37.606Z,50.70
2022-11-05T16:41:44.149Z,54.93
2022-11-05T16:44:48.224Z,50.63
2022-11-05T16:47:52.582Z,54.65
2022-11-05T16:50:56.550Z,56.05
2022-11-05T16:54:00.320Z,59.13
2022-11-05T16:57:11.778Z,55.70
2022-11-05T17:00:20.389Z,50.63
2022-11-05T17:03:24.263Z,49.00
2022-11-05T17:06:28.000Z,50.67
2022-11-05T17:09:32.071Z,49.28
2022-11-05T17:12:36.517Z,51.27
2022-11-05T17:15:40.530Z,42.50
2022-11-05T17:18:45.297Z,47.10
2022-11-05T17:21:50.210Z,53.28
2022-11-05T17:24:54.111Z,44.58
2022-11-05T17:27:59.318Z,49.07
2022-11-05T17:31:06.069Z,49.13
2022-11-05T17:34:10.782Z,44.03
2022-11-05T17:37:14.616Z,44.65
2022-11-05T17:40:22.496Z,40.80
2022-11-05T17:43:26.324Z,35.60
2022-11-05T17:46:29.997Z,33.10
2022-11-05T17:49:33.923Z,33.90
2022-11-05T17:52:37.616Z,37.25
2022-11-05T17:55:45.795Z,33.47
2022-11-05T17:58:49.669Z,32.13
2022-11-05T18:01:53.597Z,30.77
2022-11-05T18:04:57.444Z,37.45
2022-11-05T18:08:01.388Z,27.83
2022-11-05T18:11:05.453Z,27.20
2022-11-05T18:14:10.124Z,27.80
2022-11-05T18:17:13.968Z,24.57
2022-11-05T18:20:19.710Z,21.83
2022-11-05T18:23:23.358Z,19.42
2022-11-05T18:26:27.310Z,20.27
2022-11-05T18:29:31.265Z,18.30
2022-11-05T18:32:35.387Z,16.90
2022-11-05T18:35:45.663Z,17.30
2022-11-05T18:38:50.240Z,18.55
2022-11-05T18:41:54.672Z,18.52
2022-11-05T18:44:58.585Z,16.83
2022-11-05T18:48:03.315Z,17.37
2022-11-05T18:51:15.920Z,15.93
2022-11-05T18:54:20.085Z,14.57
2022-11-05T18:57:23.975Z,11.95
2022-11-05T19:00:28.062Z,12.97
2022-11-05T19:03:33.604Z,12.67
2022-11-05T19:06:38.638Z,14.32
2022-11-05T19:09:42.611Z,13.13
2022-11-05T19:12:46.390Z,13.80
2022-11-05T19:15:50.702Z,14.47
2022-11-05T19:18:57.860Z,13.43
2022-11-05T19:22:03.616Z,14.93
2022-11-05T19:25:07.991Z,14.88
2022-11-05T19:28:12.193Z,13.18
2022-11-05T19:31:22.085Z,11.20
2022-11-05T19:34:26.074Z,11.90
2022-11-05T19:37:29.847Z,11.60
2022-11-05T19:40:33.567Z,11.00
2022-11-05T19:43:38.847Z,11.07
2022-11-05T19:46:44.066Z,12.00
2022-11-05T19:49:47.972Z,9.37
2022-11-05T19:52:51.888Z,8.07
2022-11-05T19:55:55.703Z,11.23
2022-11-05T19:59:00.985Z,9.40
2022-11-05T20:02:05.856Z,9.20
2022-11-05T20:05:10.878Z,9.17
2022-11-05T20:08:15.449Z,11.75
2022-11-05T20:11:19.477Z,9.57
2022-11-05T20:14:24.538Z,11.10
2022-11-05T20:17:28.375Z,9.03
2022-11-05T20:20:32.756Z,9.70
2022-11-05T20:23:36.779Z,10.18
2022-11-05T20:26:40.844Z,10.10
2022-11-05T20:29:44.555Z,8.27
2022-11-05T20:32:48.349Z,8.23
2022-11-05T20:35:52.097Z,8.60
2022-11-05T20:39:02.924Z,11.10
2022-11-05T20:42:06.807Z,8.75
2022-11-05T20:45:11.927Z,8.15
2022-11-05T20:48:15.774Z,11.50
2022-11-05T20:51:21.458Z,7.83
2022-11-05T20:54:25.488Z,7.45
2022-11-05T20:57:29.260Z,7.38
2022-11-05T21:00:33.004Z,7.65
2022-11-05T21:03:40.084Z,8.40
2022-11-05T21:06:44.177Z,7.40
2022-11-05T21:09:47.741Z,8.48
2022-11-05T21:12:52.449Z,8.02
2022-11-05T21:15:58.438Z,8.75
2022-11-05T21:19:02.068Z,7.37
2022-11-05T21:22:07.306Z,6.63
2022-11-05T21:25:11.374Z,9.25
2022-11-05T21:28:16.174Z,6.72
2022-11-05T21:31:19.994Z,6.57
2022-11-05T21:34:24.083Z,7.37
2022-11-05T21:37:27.959Z,8.93
2022-11-05T21:40:31.485Z,6.35
2022-11-05T21:43:35.507Z,7.22
2022-11-05T21:46:39.108Z,7.15
2022-11-05T21:49:43.023Z,10.50
2022-11-05T21:53:05.323Z,8.50
2022-11-05T21:56:32.679Z,8.35
2022-11-05T21:59:48.724Z,13.30
2022-11-05T22:02:52.420Z,12.20
2022-11-05T22:05:57.395Z,16.60
2022-11-05T22:09:01.128Z,7.40
2022-11-05T22:12:05.338Z,5.82
2022-11-05T22:15:09.434Z,6.25
2022-11-05T22:18:14.343Z,7.97
2022-11-05T22:21:19.354Z,5.20
2022-11-05T22:24:23.410Z,6.00
2022-11-05T22:27:26.854Z,5.13
2022-11-05T22:30:32.838Z,7.03
2022-11-05T22:33:36.381Z,4.80
2022-11-05T22:36:40.058Z,4.80
2022-11-05T22:39:43.578Z,4.70
2022-11-05T22:42:47.179Z,5.85
2022-11-05T22:45:50.728Z,5.22
2022-11-05T22:48:56.023Z,5.43
2022-11-05T22:51:59.482Z,4.90
2022-11-05T22:55:04.993Z,5.20
2022-11-05T22:58:09.134Z,6.68
2022-11-05T23:01:14.102Z,5.70
2022-11-05T23:04:17.764Z,8.50
2022-11-05T23:07:39.893Z,9.40
2022-11-05T23:11:02.746Z,8.67
2022-11-05T23:14:11.617Z,7.28
2022-11-05T23:17:33.572Z,5.78
2022-11-05T23:20:55.568Z,6.78
2022-11-05T23:24:04.614Z,5.30
2022-11-05T23:27:08.096Z,6.77
2022-11-05T23:30:15.039Z,5.80
2022-11-05T23:33:19.676Z,5.60
2022-11-05T23:36:41.556Z,5.07
2022-11-05T23:39:45.081Z,6.90
2022-11-05T23:43:07.601Z,7.57
2022-11-05T23:46:29.633Z,6.07
2022-11-05T23:49:33.250Z,4.90
2022-11-05T23:52:36.580Z,7.05
2022-11-05T23:55:40.138Z,6.33
2022-11-05T23:58:43.575Z,7.77
